Time,TemperatureF,DewpointF,PressureIn,WindDirection,WindDirectionDegrees,WindSpeedMPH,WindSpeedGustMPH,Humidity,HourlyPrecipIn,Conditions,Clouds,dailyrainin,SoftwareType,DateUTC
2013-04-12 00:06:00,52.9,43.0,29.75,North,0,0.0,-999.0,69,0.00,,,0.00,open2300 v1.10,2013-04-12 07:06:00,
2013-04-12 00:21:00,52.7,43.2,29.76,North,0,0.0,-999.0,70,0.00,,,0.00,open2300 v1.10,2013-04-12 07:21:00,
2013-04-12 00:36:00,52.3,42.9,29.75,North,0,0.0,-999.0,70,0.00,,,0.00,open2300 v1.10,2013-04-12 07:36:00,
2013-04-12 00:51:00,52.3,42.9,29.76,North,0,0.0,-999.0,70,0.00,,,0.00,open2300 v1.10,2013-04-12 07:51:00,
2013-04-12 01:07:00,52.0,42.6,29.77,North,0,0.0,-999.0,70,0.00,,,0.00,open2300 v1.10,2013-04-12 08:07:00,
2013-04-12 01:21:00,51.6,42.3,29.77,North,0,0.0,-999.0,70,0.00,,,0.00,open2300 v1.10,2013-04-12 08:21:00,
2013-04-12 01:36:00,51.6,42.3,29.77,North,0,0.0,-999.0,70,0.00,,,0.00,open2300 v1.10,2013-04-12 08:36:00,
2013-04-12 01:51:00,51.3,41.9,29.76,North,0,0.0,-999.0,70,0.00,,,0.00,open2300 v1.10,2013-04-12 08:51:00,
2013-04-12 02:07:00,51.4,42.1,29.76,North,0,0.0,-999.0,70,0.00,,,0.00,open2300 v1.10,2013-04-12 09:07:00,
2013-04-12 02:21:00,51.8,42.4,29.76,North,0,0.0,-999.0,70,0.00,,,0.00,open2300 v1.10,2013-04-12 09:21:00,
2013-04-12 02:36:00,52.0,42.9,29.76,North,0,0.0,-999.0,71,0.00,,,0.00,open2300 v1.10,2013-04-12 09:36:00,
2013-04-12 02:51:00,52.0,42.9,29.76,North,0,0.0,-999.0,71,0.00,,,0.00,open2300 v1.10,2013-04-12 09:51:00,
2013-04-12 03:07:00,52.0,42.9,29.76,North,0,0.0,-999.0,71,0.00,,,0.00,open2300 v1.10,2013-04-12 10:07:00,
2013-04-12 03:21:00,51.8,43.1,29.75,North,0,0.0,-999.0,72,0.00,,,0.00,open2300 v1.10,2013-04-12 10:21:00,
2013-04-12 03:36:00,51.6,42.9,29.74,North,0,0.0,-999.0,72,0.00,,,0.00,open2300 v1.10,2013-04-12 10:36:00,
2013-04-12 03:52:00,51.6,42.9,29.75,North,0,0.0,-999.0,72,0.00,,,0.00,open2300 v1.10,2013-04-12 10:52:00,
2013-04-12 04:07:00,51.6,42.9,29.76,North,0,0.0,-999.0,72,0.00,,,0.00,open2300 v1.10,2013-04-12 11:07:00,
2013-04-12 04:21:00,51.4,42.8,29.76,North,0,0.0,-999.0,72,0.00,,,0.00,open2300 v1.10,2013-04-12 11:21:00,
2013-04-12 04:37:00,51.4,42.8,29.75,North,0,0.0,-999.0,72,0.00,,,0.00,open2300 v1.10,2013-04-12 11:37:00,
2013-04-12 04:51:00,51.4,43.1,29.76,North,0,0.0,-999.0,73,0.00,,,0.00,open2300 v1.10,2013-04-12 11:51:00,
2013-04-12 05:07:00,51.1,42.8,29.76,North,0,0.0,-999.0,73,0.00,,,0.00,open2300 v1.10,2013-04-12 12:07:00,
2013-04-12 05:21:00,51.1,42.8,29.76,North,0,0.0,-999.0,73,0.00,,,0.00,open2300 v1.10,2013-04-12 12:21:00,
2013-04-12 05:36:00,51.1,42.8,29.76,North,0,0.0,-999.0,73,0.00,,,0.00,open2300 v1.10,2013-04-12 12:36:00,
2013-04-12 05:51:00,51.1,42.8,29.75,North,0,0.0,-999.0,73,0.00,,,0.00,open2300 v1.10,2013-04-12 12:51:00,
2013-04-12 06:07:00,51.1,42.8,29.76,North,0,0.0,-999.0,73,0.00,,,0.00,open2300 v1.10,2013-04-12 13:07:00,
2013-04-12 06:21:00,51.1,42.4,29.76,North,0,0.0,-999.0,72,0.00,,,0.00,open2300 v1.10,2013-04-12 13:21:00,
2013-04-12 06:36:00,51.1,42.8,29.76,North,0,0.0,-999.0,73,0.00,,,0.00,open2300 v1.10,2013-04-12 13:36:00,
2013-04-12 06:51:00,51.3,42.9,29.77,North,0,0.0,-999.0,73,0.00,,,0.00,open2300 v1.10,2013-04-12 13:51:00,
2013-04-12 07:07:00,51.3,42.9,29.78,North,0,0.0,-999.0,73,0.00,,,0.00,open2300 v1.10,2013-04-12 14:07:00,
2013-04-12 07:21:00,51.3,42.9,29.78,North,0,0.0,-999.0,73,0.00,,,0.00,open2300 v1.10,2013-04-12 14:21:00,
2013-04-12 07:36:00,51.3,43.3,29.78,North,0,0.0,-999.0,74,0.00,,,0.00,open2300 v1.10,2013-04-12 14:36:00,
2013-04-12 07:51:00,51.4,43.8,29.80,North,0,0.0,-999.0,75,0.00,,,0.00,open2300 v1.10,2013-04-12 14:51:00,
2013-04-12 08:06:00,51.6,44.0,29.79,North,0,0.0,-999.0,75,0.00,,,0.00,open2300 v1.10,2013-04-12 15:06:00,
2013-04-12 08:21:00,52.0,44.3,29.79,North,0,0.0,-999.0,75,0.00,,,0.00,open2300 v1.10,2013-04-12 15:21:00,
2013-04-12 08:36:00,52.3,44.7,29.80,North,0,0.0,-999.0,75,0.00,,,0.00,open2300 v1.10,2013-04-12 15:36:00,
2013-04-12 08:51:00,52.7,45.0,29.80,North,0,0.0,-999.0,75,0.00,,,0.00,open2300 v1.10,2013-04-12 15:51:00,
2013-04-12 09:06:00,53.2,45.2,29.80,North,0,0.0,-999.0,74,0.00,,,0.00,open2300 v1.10,2013-04-12 16:06:00,
2013-04-12 09:21:00,53.4,45.3,29.81,North,0,0.0,-999.0,74,0.00,,,0.00,open2300 v1.10,2013-04-12 16:21:00,
2013-04-12 09:36:00,53.8,45.7,29.81,North,0,0.0,-999.0,74,0.00,,,0.00,open2300 v1.10,2013-04-12 16:36:00,
2013-04-12 09:51:00,54.1,46.0,29.81,North,0,0.0,-999.0,74,0.00,,,0.00,open2300 v1.10,2013-04-12 16:51:00,
2013-04-12 10:06:00,54.7,46.2,29.80,North,0,0.0,-999.0,73,0.00,,,0.00,open2300 v1.10,2013-04-12 17:06:00,
2013-04-12 10:21:00,55.0,46.5,29.80,North,0,0.0,-999.0,73,0.00,,,0.00,open2300 v1.10,2013-04-12 17:21:00,
2013-04-12 10:36:00,55.6,46.7,29.80,North,0,0.0,-999.0,72,0.00,,,0.00,open2300 v1.10,2013-04-12 17:36:00,
2013-04-12 10:51:00,56.1,47.2,29.80,North,0,0.0,-999.0,72,0.00,,,0.00,open2300 v1.10,2013-04-12 17:51:00,
2013-04-12 11:06:00,56.7,47.7,29.80,North,0,0.0,-999.0,72,0.00,,,0.00,open2300 v1.10,2013-04-12 18:06:00,
2013-04-12 12:36:00,59.4,48.4,29.78,North,0,0.0,-999.0,67,0.00,,,0.00,open2300 v1.10,2013-04-12 19:36:00,
2013-04-12 12:51:00,58.8,47.4,29.78,North,0,0.0,-999.0,66,0.00,,,0.00,open2300 v1.10,2013-04-12 19:51:00,
2013-04-12 13:06:00,58.8,47.4,29.78,North,0,0.0,-999.0,66,0.00,,,0.00,open2300 v1.10,2013-04-12 20:06:00,
2013-04-12 13:21:00,58.8,47.4,29.78,North,0,0.0,-999.0,66,0.00,,,0.00,open2300 v1.10,2013-04-12 20:21:00,
2013-04-12 13:36:00,58.8,47.0,29.78,North,0,0.0,-999.0,65,0.00,,,0.00,open2300 v1.10,2013-04-12 20:36:00,
2013-04-12 13:51:00,59.0,47.2,29.77,North,0,0.0,-999.0,65,0.00,,,0.00,open2300 v1.10,2013-04-12 20:51:00,
2013-04-12 14:06:00,59.9,48.1,29.76,North,0,0.0,-999.0,65,0.00,,,0.00,open2300 v1.10,2013-04-12 21:06:00,
2013-04-12 14:21:00,60.6,48.4,29.76,North,0,0.0,-999.0,64,0.00,,,0.00,open2300 v1.10,2013-04-12 21:21:00,
2013-04-12 14:36:00,61.0,48.3,29.76,North,0,0.0,-999.0,63,0.00,,,0.00,open2300 v1.10,2013-04-12 21:36:00,
2013-04-12 14:51:00,60.6,47.6,29.76,North,0,0.0,-999.0,62,0.00,,,0.00,open2300 v1.10,2013-04-12 21:51:00,
2013-04-12 15:06:00,59.7,47.1,29.76,North,0,0.0,-999.0,63,0.00,,,0.00,open2300 v1.10,2013-04-12 22:06:00,
2013-04-12 15:21:00,59.5,46.5,29.75,North,0,0.0,-999.0,62,0.00,,,0.00,open2300 v1.10,2013-04-12 22:21:00,
2013-04-12 15:36:00,59.7,47.1,29.76,North,0,0.0,-999.0,63,0.00,,,0.00,open2300 v1.10,2013-04-12 22:36:00,
2013-04-12 15:51:00,59.9,47.3,29.74,North,0,0.0,-999.0,63,0.00,,,0.00,open2300 v1.10,2013-04-12 22:51:00,
2013-04-12 16:06:00,59.7,47.5,29.74,North,0,0.0,-999.0,64,0.00,,,0.00,open2300 v1.10,2013-04-12 23:06:00,
2013-04-12 16:21:00,60.3,47.6,29.74,North,0,0.0,-999.0,63,0.00,,,0.00,open2300 v1.10,2013-04-12 23:21:00,
2013-04-12 16:36:00,61.0,48.3,29.74,North,0,0.0,-999.0,63,0.00,,,0.00,open2300 v1.10,2013-04-12 23:36:00,
2013-04-12 16:51:00,61.2,48.1,29.74,North,0,0.0,-999.0,62,0.00,,,0.00,open2300 v1.10,2013-04-12 23:51:00,
2013-04-12 17:06:00,61.3,48.2,29.73,North,0,0.0,-999.0,62,0.00,,,0.00,open2300 v1.10,2013-04-13 00:06:00,
2013-04-12 17:21:00,61.9,48.7,29.73,North,0,0.0,-999.0,62,0.00,,,0.00,open2300 v1.10,2013-04-13 00:21:00,
2013-04-12 17:36:00,62.8,49.1,29.73,North,0,0.0,-999.0,61,0.00,,,0.00,open2300 v1.10,2013-04-13 00:36:00,
2013-04-12 17:51:00,63.3,49.2,29.73,North,0,0.0,-999.0,60,0.00,,,0.00,open2300 v1.10,2013-04-13 00:51:00,
2013-04-12 18:06:00,63.7,49.0,29.73,North,0,0.0,-999.0,59,0.00,,,0.00,open2300 v1.10,2013-04-13 01:06:00,
2013-04-12 18:21:00,63.5,48.4,29.73,North,0,0.0,-999.0,58,0.00,,,0.00,open2300 v1.10,2013-04-13 01:21:00,
2013-04-12 18:36:00,62.6,47.6,29.73,North,0,0.0,-999.0,58,0.00,,,0.00,open2300 v1.10,2013-04-13 01:36:00,
2013-04-12 18:51:00,61.3,46.9,29.73,North,0,0.0,-999.0,59,0.00,,,0.00,open2300 v1.10,2013-04-13 01:51:00,
2013-04-12 19:06:00,60.6,46.8,29.73,North,0,0.0,-999.0,60,0.00,,,0.00,open2300 v1.10,2013-04-13 02:06:00,
2013-04-12 19:21:00,58.8,45.4,29.72,North,0,0.0,-999.0,61,0.00,,,0.00,open2300 v1.10,2013-04-13 02:21:00,
2013-04-12 19:37:00,57.4,44.9,29.73,North,0,0.0,-999.0,63,0.00,,,0.00,open2300 v1.10,2013-04-13 02:37:00,
2013-04-12 19:51:00,56.5,44.4,29.73,North,0,0.0,-999.0,64,0.00,,,0.00,open2300 v1.10,2013-04-13 02:51:00,
2013-04-12 20:22:00,54.7,43.5,29.74,North,0,0.0,-999.0,66,0.00,,,0.00,open2300 v1.10,2013-04-13 03:22:00,
2013-04-12 20:36:00,54.0,43.6,29.74,North,0,0.0,-999.0,68,0.00,,,0.00,open2300 v1.10,2013-04-13 03:36:00,
2013-04-12 20:51:00,53.8,43.4,29.75,North,0,0.0,-999.0,68,0.00,,,0.00,open2300 v1.10,2013-04-13 03:51:00,
2013-04-12 21:06:00,53.4,43.5,29.75,North,0,0.0,-999.0,69,0.00,,,0.00,open2300 v1.10,2013-04-13 04:06:00,
2013-04-12 21:21:00,53.2,43.3,29.76,North,0,0.0,-999.0,69,0.00,,,0.00,open2300 v1.10,2013-04-13 04:21:00,
2013-04-12 21:36:00,52.9,43.4,29.76,North,0,0.0,-999.0,70,0.00,,,0.00,open2300 v1.10,2013-04-13 04:36:00,
2013-04-12 21:51:00,52.9,43.4,29.76,North,0,0.0,-999.0,70,0.00,,,0.00,open2300 v1.10,2013-04-13 04:51:00,
2013-04-12 22:07:00,52.7,43.6,29.77,North,0,0.0,-999.0,71,0.00,,,0.00,open2300 v1.10,2013-04-13 05:07:00,
2013-04-12 22:21:00,52.5,43.4,29.77,North,0,0.0,-999.0,71,0.00,,,0.00,open2300 v1.10,2013-04-13 05:21:00,
2013-04-12 22:36:00,52.3,43.6,29.76,North,0,0.0,-999.0,72,0.00,,,0.00,open2300 v1.10,2013-04-13 05:36:00,
2013-04-12 22:51:00,52.3,43.6,29.77,North,0,0.0,-999.0,72,0.00,,,0.00,open2300 v1.10,2013-04-13 05:51:00,
2013-04-12 23:06:00,52.5,43.8,29.77,North,0,0.0,-999.0,72,0.00,,,0.00,open2300 v1.10,2013-04-13 06:06:00,
2013-04-12 23:21:00,52.5,43.4,29.76,North,0,0.0,-999.0,71,0.00,,,0.00,open2300 v1.10,2013-04-13 06:21:00,
2013-04-12 23:37:00,52.3,43.3,29.77,North,0,0.0,-999.0,71,0.00,,,0.00,open2300 v1.10,2013-04-13 06:37:00,